createdAt,value
2018-06-28T00:00:39.447Z,89.47
2018-06-28T00:01:39.430Z,88.37
2018-06-28T00:02:39.413Z,86.45
2018-06-28T00:03:39.393Z,86.07
2018-06-28T00:04:39.375Z,87.21
2018-06-28T00:05:39.358Z,86.64
2018-06-28T00:06:39.340Z,87.98
2018-06-28T00:07:39.322Z,87.98
2018-06-28T00:08:39.303Z,86.16
2018-06-28T00:09:39.287Z,86.25
2018-06-28T00:10:39.267Z,86.25
2018-06-28T00:11:39.250Z,85.49
2018-06-28T00:12:39.231Z,85.21
2018-06-28T00:13:39.216Z,85.97
2018-06-28T00:14:39.197Z,86.25
2018-06-28T00:15:39.178Z,86.35
2018-06-28T00:16:39.159Z,85.97
2018-06-28T00:17:39.141Z,85.97
2018-06-28T00:18:39.125Z,87.21
2018-06-28T00:19:39.109Z,87.50
2018-06-28T00:20:39.086Z,88.46
2018-06-28T00:21:39.069Z,88.46
2018-06-28T00:22:39.051Z,87.79
2018-06-28T00:23:39.035Z,87.41
2018-06-28T00:24:39.014Z,87.79
2018-06-28T00:25:38.998Z,88.56
2018-06-28T00:26:38.979Z,89.04
2018-06-28T00:27:38.959Z,88.51
2018-06-28T00:28:38.941Z,89.18
2018-06-28T00:29:38.923Z,88.70
2018-06-28T00:30:38.905Z,88.99
2018-06-28T00:31:38.888Z,89.47
2018-06-28T00:32:38.871Z,89.37
2018-06-28T00:33:38.852Z,89.95
2018-06-28T00:34:38.834Z,91.10
2018-06-28T00:35:38.814Z,90.77
2018-06-28T00:36:38.795Z,90.91
2018-06-28T00:37:38.781Z,91.34
2018-06-28T00:38:38.760Z,91.05
2018-06-28T00:39:38.744Z,91.53
2018-06-28T00:40:38.724Z,91.34
2018-06-28T00:41:38.705Z,91.72
2018-06-28T00:42:38.689Z,92.01
2018-06-28T00:43:38.704Z,92.11
2018-06-28T00:44:38.649Z,91.34
2018-06-28T00:45:38.633Z,91.68
2018-06-28T00:46:38.615Z,92.16
2018-06-28T00:47:38.595Z,91.87
2018-06-28T00:48:38.576Z,92.16
2018-06-28T00:49:38.558Z,92.06
2018-06-28T00:50:38.541Z,91.77
2018-06-28T00:51:38.524Z,91.58
2018-06-28T00:52:38.503Z,91.30
2018-06-28T00:53:38.484Z,91.20
2018-06-28T00:54:38.470Z,91.44
2018-06-28T00:55:38.448Z,92.06
2018-06-28T00:56:38.428Z,91.87
2018-06-28T00:57:38.410Z,91.58
2018-06-28T00:58:38.392Z,91.49
2018-06-28T00:59:38.372Z,91.68
2018-06-28T01:00:38.355Z,91.77
2018-06-28T01:01:38.336Z,91.49
2018-06-28T01:02:38.319Z,91.58
2018-06-28T01:03:38.299Z,91.39
2018-06-28T01:04:38.281Z,91.01
2018-06-28T01:05:38.262Z,90.82
2018-06-28T01:06:38.243Z,91.15
2018-06-28T01:07:38.226Z,91.05
2018-06-28T01:08:38.206Z,90.58
2018-06-28T01:09:38.187Z,90.34
2018-06-28T01:10:38.171Z,90.34
2018-06-28T01:11:38.150Z,90.82
2018-06-28T01:12:38.131Z,90.34
2018-06-28T01:13:38.113Z,90.15
2018-06-28T01:14:38.096Z,90.09
2018-06-28T01:15:38.080Z,89.95
2018-06-28T01:16:38.058Z,90.19
2018-06-28T01:17:38.039Z,89.81
2018-06-28T01:18:38.051Z,89.52
2018-06-28T01:19:38.002Z,89.33
2018-06-28T01:20:37.982Z,89.43
2018-06-28T01:21:37.964Z,89.23
2018-06-28T01:22:37.946Z,89.43
2018-06-28T01:23:37.925Z,89.43
2018-06-28T01:24:37.908Z,89.43
2018-06-28T01:25:37.889Z,89.52
2018-06-28T01:26:37.871Z,89.43
2018-06-28T01:27:37.855Z,89.43
2018-06-28T01:28:37.832Z,89.04
2018-06-28T01:29:37.868Z,88.85
2018-06-28T01:30:37.796Z,89.43
2018-06-28T01:31:37.775Z,88.85
2018-06-28T01:32:37.758Z,89.23
2018-06-28T01:33:37.738Z,88.47
2018-06-28T01:34:37.720Z,88.37
2018-06-28T01:35:37.702Z,88.47
2018-06-28T01:36:37.683Z,88.76
2018-06-28T01:37:37.666Z,88.37
2018-06-28T01:38:37.648Z,88.47
2018-06-28T01:39:37.627Z,88.37
2018-06-28T01:40:37.606Z,88.85
2018-06-28T01:41:37.588Z,88.56
2018-06-28T01:42:37.570Z,88.76
2018-06-28T01:43:37.550Z,88.85
2018-06-28T01:44:37.531Z,89.04
2018-06-28T01:45:37.512Z,89.52
2018-06-28T01:46:37.494Z,88.47
2018-06-28T01:47:37.474Z,88.85
2018-06-28T01:48:37.455Z,88.85
2018-06-28T01:49:37.437Z,89.43
2018-06-28T01:50:37.419Z,88.85
2018-06-28T01:51:37.399Z,88.95
2018-06-28T01:52:37.382Z,89.52
2018-06-28T01:53:37.361Z,89.81
2018-06-28T01:54:37.346Z,89.76
2018-06-28T01:55:37.322Z,90.19
2018-06-28T01:56:37.302Z,89.95
2018-06-28T01:57:37.285Z,90.15
2018-06-28T01:58:37.267Z,89.86
2018-06-28T01:59:37.247Z,90.05
2018-06-28T02:00:37.229Z,90.24
2018-06-28T02:01:37.209Z,89.86
2018-06-28T02:02:37.189Z,90.15
2018-06-28T02:03:37.173Z,90.53
2018-06-28T02:04:37.150Z,90.44
2018-06-28T02:05:37.132Z,90.82
2018-06-28T02:06:37.113Z,90.82
2018-06-28T02:07:37.095Z,90.72
2018-06-28T02:08:37.075Z,91.30
2018-06-28T02:09:37.057Z,91.49
2018-06-28T02:10:37.040Z,91.20
2018-06-28T02:11:37.017Z,91.49
2018-06-28T02:12:36.999Z,91.11
2018-06-28T02:13:36.979Z,91.87
2018-06-28T02:14:36.960Z,92.25
2018-06-28T02:15:36.941Z,91.97
2018-06-28T02:16:36.922Z,91.68
2018-06-28T02:17:36.904Z,92.30
2018-06-28T02:18:36.897Z,91.83
2018-06-28T02:19:36.867Z,91.20
2018-06-28T02:20:36.846Z,91.58
2018-06-28T02:21:36.830Z,91.35
2018-06-28T02:22:36.808Z,91.30
2018-06-28T02:23:36.789Z,91.49
2018-06-28T02:24:36.770Z,91.30
2018-06-28T02:25:36.750Z,91.58
2018-06-28T02:26:36.735Z,91.49
2018-06-28T02:27:36.712Z,91.39
2018-06-28T02:28:36.693Z,91.49
2018-06-28T02:29:36.674Z,91.20
2018-06-28T02:30:36.655Z,91.68
2018-06-28T02:31:36.634Z,91.77
2018-06-28T02:32:36.615Z,91.77
2018-06-28T02:33:36.596Z,91.20
2018-06-28T02:34:36.577Z,91.20
2018-06-28T02:35:36.558Z,91.39
2018-06-28T02:36:36.539Z,91.87
2018-06-28T02:37:36.519Z,92.30
2018-06-28T02:38:36.500Z,91.92
2018-06-28T02:39:36.480Z,91.73
2018-06-28T02:40:36.462Z,92.02
2018-06-28T02:41:36.444Z,91.83
2018-06-28T02:42:36.422Z,91.73
2018-06-28T02:43:36.404Z,91.83
2018-06-28T02:44:36.388Z,92.02
2018-06-28T02:45:36.365Z,91.44
2018-06-28T02:46:36.345Z,91.73
2018-06-28T02:47:36.325Z,91.44
2018-06-28T02:48:36.307Z,91.83
2018-06-28T02:49:36.287Z,91.83
2018-06-28T02:50:36.272Z,91.63
2018-06-28T02:51:36.247Z,92.30
2018-06-28T02:52:36.229Z,92.02
2018-06-28T02:53:36.209Z,91.83
2018-06-28T02:54:36.191Z,92.21
2018-06-28T02:55:36.171Z,91.83
2018-06-28T02:56:36.152Z,92.02
2018-06-28T02:57:36.132Z,92.11
2018-06-28T02:58:36.113Z,92.21
2018-06-28T02:59:36.093Z,91.92
2018-06-28T03:00:36.074Z,92.69
2018-06-28T03:01:36.055Z,92.40
2018-06-28T03:02:36.035Z,92.59
2018-06-28T03:03:36.016Z,92.30
2018-06-28T03:04:35.996Z,92.49
2018-06-28T03:05:35.976Z,92.40
2018-06-28T03:06:35.956Z,92.97
2018-06-28T03:07:35.936Z,92.59
2018-06-28T03:08:35.917Z,93.07
2018-06-28T03:09:35.909Z,92.40
2018-06-28T03:10:35.881Z,92.78
2018-06-28T03:11:35.862Z,92.59
2018-06-28T03:12:35.839Z,93.07
2018-06-28T03:13:36.570Z,93.45
2018-06-28T03:14:35.802Z,93.07
2018-06-28T03:15:35.781Z,93.26
2018-06-28T03:16:35.767Z,94.12
2018-06-28T03:17:35.742Z,93.60
2018-06-28T03:18:35.724Z,93.16
2018-06-28T03:19:35.704Z,93.35
2018-06-28T03:20:35.684Z,93.31
2018-06-28T03:21:35.665Z,93.79
2018-06-28T03:22:35.648Z,94.07
2018-06-28T03:23:35.625Z,93.88
2018-06-28T03:24:35.605Z,93.98
2018-06-28T03:25:35.587Z,93.98
2018-06-28T03:26:35.566Z,93.98
2018-06-28T03:27:35.546Z,93.69
2018-06-28T03:28:35.527Z,93.50
2018-06-28T03:29:37.010Z,94.26
2018-06-28T03:30:35.491Z,94.36
2018-06-28T03:31:35.478Z,94.65
2018-06-28T03:32:35.450Z,94.55
2018-06-28T03:33:35.435Z,94.55
2018-06-28T03:34:35.411Z,95.03
2018-06-28T03:35:35.390Z,94.74
2018-06-28T03:36:35.371Z,94.65
2018-06-28T03:37:35.432Z,94.93
2018-06-28T03:38:35.334Z,95.22
2018-06-28T03:39:35.313Z,94.74
2018-06-28T03:40:35.294Z,94.65
2018-06-28T03:41:35.275Z,94.74
2018-06-28T03:42:35.254Z,94.84
2018-06-28T03:43:35.236Z,94.55
2018-06-28T03:44:35.216Z,94.36
2018-06-28T03:45:35.195Z,94.55
2018-06-28T03:46:35.176Z,94.46
2018-06-28T03:47:35.155Z,94.55
2018-06-28T03:48:35.139Z,94.46
2018-06-28T03:49:35.117Z,94.55
2018-06-28T03:50:35.097Z,94.46
2018-06-28T03:51:35.080Z,94.46
2018-06-28T03:52:35.058Z,94.65
2018-06-28T03:53:35.038Z,94.55
2018-06-28T03:54:35.020Z,94.46
2018-06-28T03:55:34.999Z,95.03
2018-06-28T03:56:37.231Z,94.55
2018-06-28T03:57:34.962Z,94.55
2018-06-28T03:58:34.942Z,94.84
2018-06-28T03:59:34.921Z,94.93
2018-06-28T04:00:34.901Z,94.55
2018-06-28T04:01:34.882Z,94.84
2018-06-28T04:02:35.614Z,94.74
2018-06-28T04:03:34.844Z,94.07
2018-06-28T04:04:34.824Z,94.46
2018-06-28T04:05:34.804Z,94.74
2018-06-28T04:06:34.854Z,94.93
2018-06-28T04:07:34.764Z,95.12
2018-06-28T04:08:34.745Z,94.55
2018-06-28T04:09:34.724Z,94.65
2018-06-28T04:10:34.705Z,94.46
2018-06-28T04:11:34.686Z,94.26
2018-06-28T04:12:34.665Z,94.65
2018-06-28T04:13:34.647Z,95.12
2018-06-28T04:14:34.628Z,94.74
2018-06-28T04:15:34.606Z,94.55
2018-06-28T04:16:34.614Z,95.12
2018-06-28T04:17:34.568Z,95.12
2018-06-28T04:18:34.550Z,95.41
2018-06-28T04:19:34.529Z,95.61
2018-06-28T04:20:34.510Z,95.12
2018-06-28T04:21:34.489Z,95.41
2018-06-28T04:22:34.503Z,95.41
2018-06-28T04:23:34.450Z,95.41
2018-06-28T04:24:34.434Z,95.51
2018-06-28T04:25:34.411Z,95.41
2018-06-28T04:26:34.393Z,96.08
2018-06-28T04:27:34.400Z,95.79
2018-06-28T04:28:34.352Z,96.08
2018-06-28T04:29:34.333Z,96.08
2018-06-28T04:30:34.320Z,96.08
2018-06-28T04:31:34.293Z,96.08
2018-06-28T04:32:34.274Z,96.47
2018-06-28T04:33:34.255Z,95.70
2018-06-28T04:34:34.235Z,95.41
2018-06-28T04:35:34.215Z,96.08
2018-06-28T04:36:34.195Z,95.89
2018-06-28T04:37:34.176Z,94.93
2018-06-28T04:38:34.157Z,94.84
2018-06-28T04:39:34.139Z,94.74
2018-06-28T04:40:34.118Z,94.02
2018-06-28T04:41:34.098Z,94.02
2018-06-28T04:42:34.079Z,95.27
2018-06-28T04:43:34.061Z,94.70
2018-06-28T04:44:34.039Z,94.70
2018-06-28T04:45:34.021Z,94.60
2018-06-28T04:46:34.002Z,94.79
2018-06-28T04:47:33.981Z,94.89
2018-06-28T04:48:33.963Z,94.79
2018-06-28T04:49:33.947Z,94.21
2018-06-28T04:50:33.922Z,94.12
2018-06-28T04:51:33.902Z,94.31
2018-06-28T04:52:33.882Z,94.21
2018-06-28T04:53:33.863Z,94.12
2018-06-28T04:54:33.845Z,94.79
2018-06-28T04:55:33.824Z,95.36
2018-06-28T04:56:33.805Z,95.65
2018-06-28T04:57:33.788Z,94.50
2018-06-28T04:58:33.766Z,94.02
2018-06-28T04:59:33.746Z,94.31
2018-06-28T05:00:33.728Z,94.26
2018-06-28T05:01:36.711Z,94.84
2018-06-28T05:02:33.689Z,94.36
2018-06-28T05:03:33.669Z,94.36
2018-06-28T05:04:33.650Z,95.03
2018-06-28T05:05:33.633Z,94.26
2018-06-28T05:06:33.612Z,94.74
2018-06-28T05:07:34.342Z,94.36
2018-06-28T05:08:33.572Z,94.26
2018-06-28T05:09:33.551Z,94.07
2018-06-28T05:10:33.533Z,94.17
2018-06-28T05:11:33.512Z,95.22
2018-06-28T05:12:33.493Z,94.26
2018-06-28T05:13:33.475Z,93.30
2018-06-28T05:14:33.456Z,93.21
2018-06-28T05:15:33.434Z,92.92
2018-06-28T05:16:33.416Z,93.30
2018-06-28T05:17:33.400Z,93.59
2018-06-28T05:18:34.129Z,93.50
2018-06-28T05:19:33.358Z,92.92
2018-06-28T05:20:33.339Z,92.97
2018-06-28T05:21:33.319Z,92.49
2018-06-28T05:22:33.302Z,92.58
2018-06-28T05:23:33.281Z,91.72
2018-06-28T05:24:33.261Z,91.53
2018-06-28T05:25:33.242Z,91.25
2018-06-28T05:26:33.222Z,91.53
2018-06-28T05:27:33.202Z,91.53
2018-06-28T05:28:33.184Z,91.44
2018-06-28T05:29:33.165Z,91.15
2018-06-28T05:30:33.149Z,91.05
2018-06-28T05:31:33.127Z,91.34
2018-06-28T05:32:33.113Z,91.15
2018-06-28T05:33:33.088Z,91.05
2018-06-28T05:34:33.076Z,91.19
2018-06-28T05:35:33.048Z,90.96
2018-06-28T05:36:33.030Z,91.53
2018-06-28T05:37:33.011Z,91.39
2018-06-28T05:38:32.991Z,91.67
2018-06-28T05:39:32.973Z,91.10
2018-06-28T05:40:32.952Z,90.53
2018-06-28T05:41:32.940Z,91.10
2018-06-28T05:42:32.915Z,91.10
2018-06-28T05:43:32.895Z,90.81
2018-06-28T05:44:32.876Z,90.53
2018-06-28T05:45:32.857Z,90.14
2018-06-28T05:46:32.841Z,90.43
2018-06-28T05:47:32.817Z,90.62
2018-06-28T05:48:32.798Z,90.91
2018-06-28T05:49:32.779Z,89.95
2018-06-28T05:50:33.511Z,89.71
2018-06-28T05:51:32.741Z,89.51
2018-06-28T05:52:32.816Z,90.00
2018-06-28T05:53:32.702Z,89.80
2018-06-28T05:54:32.684Z,89.61
2018-06-28T05:55:32.664Z,90.00
2018-06-28T05:56:32.645Z,90.09
2018-06-28T05:57:32.627Z,90.00
2018-06-28T05:58:32.609Z,90.00
2018-06-28T05:59:32.589Z,90.47
2018-06-28T06:00:32.569Z,90.86
2018-06-28T06:01:32.551Z,90.57
2018-06-28T06:02:32.533Z,89.71
2018-06-28T06:03:32.513Z,88.94
2018-06-28T06:04:32.495Z,89.27
2018-06-28T06:05:32.475Z,89.27
2018-06-28T06:06:32.456Z,89.75
2018-06-28T06:07:32.437Z,89.18
2018-06-28T06:08:32.419Z,89.18
2018-06-28T06:09:32.402Z,89.27
2018-06-28T06:10:32.382Z,89.65
2018-06-28T06:11:32.363Z,89.18
2018-06-28T06:12:32.347Z,88.98
2018-06-28T06:13:32.325Z,88.79
2018-06-28T06:14:32.306Z,88.94
2018-06-28T06:15:32.288Z,89.42
2018-06-28T06:16:32.270Z,88.79
2018-06-28T06:17:33.000Z,88.98
2018-06-28T06:18:32.233Z,88.79
2018-06-28T06:19:32.212Z,89.32
2018-06-28T06:20:32.197Z,89.27
2018-06-28T06:21:32.178Z,89.47
2018-06-28T06:22:32.156Z,88.79
2018-06-28T06:23:32.141Z,89.75
2018-06-28T06:24:32.118Z,89.47
2018-06-28T06:25:32.100Z,89.37
2018-06-28T06:26:32.084Z,89.27
2018-06-28T06:27:32.063Z,88.65
2018-06-28T06:28:32.043Z,88.65
2018-06-28T06:29:32.148Z,88.84
2018-06-28T06:30:32.008Z,88.07
2018-06-28T06:31:31.993Z,87.88
2018-06-28T06:32:31.968Z,88.07
2018-06-28T06:33:31.951Z,87.88
2018-06-28T06:34:31.932Z,87.01
2018-06-28T06:35:31.914Z,86.63
2018-06-28T06:36:31.895Z,88.35
2018-06-28T06:37:31.876Z,88.26
2018-06-28T06:38:31.857Z,87.40
2018-06-28T06:39:31.838Z,87.11
2018-06-28T06:40:31.821Z,86.25
2018-06-28T06:41:31.802Z,86.87
2018-06-28T06:42:31.784Z,86.77
2018-06-28T06:43:31.765Z,86.19
2018-06-28T06:44:31.745Z,86.38
2018-06-28T06:45:31.729Z,85.86
2018-06-28T06:46:31.711Z,85.77
2018-06-28T06:47:31.690Z,86.25
2018-06-28T06:48:31.672Z,86.77
2018-06-28T06:49:31.654Z,86.96
2018-06-28T06:50:31.636Z,86.29
2018-06-28T06:51:31.619Z,86.38
2018-06-28T06:52:31.600Z,86.58
2018-06-28T06:53:31.582Z,85.81
2018-06-28T06:54:31.566Z,85.42
2018-06-28T06:55:31.543Z,85.33
2018-06-28T06:56:31.525Z,85.42
2018-06-28T06:57:31.535Z,85.71
2018-06-28T06:58:31.489Z,86.00
2018-06-28T06:59:31.470Z,86.10
2018-06-28T07:00:31.454Z,86.00
2018-06-28T07:01:31.435Z,85.71
2018-06-28T07:02:31.420Z,85.33
2018-06-28T07:03:31.470Z,86.10
2018-06-28T07:04:31.417Z,85.91
2018-06-28T07:05:31.362Z,85.71
2018-06-28T07:06:31.345Z,85.47
2018-06-28T07:07:31.326Z,85.95
2018-06-28T07:08:32.059Z,86.24
2018-06-28T07:09:31.291Z,85.95
2018-06-28T07:10:31.320Z,85.47
2018-06-28T07:11:31.254Z,85.57
2018-06-28T07:12:31.235Z,85.85
2018-06-28T07:13:31.220Z,86.52
2018-06-28T07:14:31.200Z,86.33
2018-06-28T07:15:31.195Z,85.75
2018-06-28T07:16:31.165Z,85.85
2018-06-28T07:17:31.147Z,85.95
2018-06-28T07:18:31.128Z,85.75
2018-06-28T07:19:31.859Z,86.14
2018-06-28T07:20:31.091Z,85.37
2018-06-28T07:21:31.076Z,85.66
2018-06-28T07:22:31.060Z,86.47
2018-06-28T07:23:31.040Z,85.03
2018-06-28T07:24:31.029Z,83.54
2018-06-28T07:25:31.002Z,84.64
2018-06-28T07:26:30.986Z,84.03
2018-06-28T07:27:30.967Z,84.12
2018-06-28T07:28:31.000Z,84.80
2018-06-28T07:29:30.932Z,84.89
2018-06-28T07:30:30.914Z,84.45
2018-06-28T07:31:30.896Z,84.55
2018-06-28T07:32:30.877Z,84.07
2018-06-28T07:33:30.864Z,83.87
2018-06-28T07:34:30.842Z,83.30
2018-06-28T07:35:30.824Z,83.49
2018-06-28T07:36:30.807Z,84.36
2018-06-28T07:37:30.796Z,83.87
2018-06-28T07:38:30.775Z,83.59
2018-06-28T07:39:30.754Z,83.40
2018-06-28T07:40:30.736Z,83.59
2018-06-28T07:41:30.719Z,83.59
2018-06-28T07:42:30.779Z,83.78
2018-06-28T07:43:30.683Z,84.26
2018-06-28T07:44:30.667Z,84.45
2018-06-28T07:45:31.399Z,84.26
2018-06-28T07:46:30.631Z,84.40
2018-06-28T07:47:30.613Z,84.40
2018-06-28T07:48:30.597Z,83.63
2018-06-28T07:49:30.579Z,83.44
2018-06-28T07:50:30.561Z,82.48
2018-06-28T07:51:30.542Z,83.25
2018-06-28T07:52:30.525Z,83.34
2018-06-28T07:53:30.510Z,83.44
2018-06-28T07:54:30.493Z,82.57
2018-06-28T07:55:30.480Z,83.44
2018-06-28T07:56:30.460Z,84.59
2018-06-28T07:57:30.439Z,83.63
2018-06-28T07:58:30.423Z,83.25
2018-06-28T07:59:30.407Z,83.96
2018-06-28T08:00:30.387Z,84.50
2018-06-28T08:01:30.370Z,83.86
2018-06-28T08:02:30.409Z,82.52
2018-06-28T08:03:30.334Z,82.32
2018-06-28T08:04:30.318Z,81.37
2018-06-28T08:05:30.302Z,81.94
2018-06-28T08:06:30.287Z,82.23
2018-06-28T08:07:30.265Z,82.32
2018-06-28T08:08:30.249Z,81.56
2018-06-28T08:09:30.231Z,81.17
2018-06-28T08:10:30.216Z,81.27
2018-06-28T08:11:30.196Z,80.21
2018-06-28T08:12:30.930Z,80.21
2018-06-28T08:13:30.163Z,80.79
2018-06-28T08:14:30.146Z,80.21
2018-06-28T08:15:30.129Z,80.30
2018-06-28T08:16:30.112Z,81.21
2018-06-28T08:17:30.100Z,80.35
2018-06-28T08:18:30.078Z,78.71
2018-06-28T08:19:30.060Z,79.48
2018-06-28T08:20:30.044Z,78.90
2018-06-28T08:21:30.087Z,78.61
2018-06-28T08:22:30.011Z,79.58
2018-06-28T08:23:32.995Z,78.81
2018-06-28T08:24:29.976Z,78.90
2018-06-28T08:25:29.961Z,78.71
2018-06-28T08:26:29.942Z,79.33
2018-06-28T08:27:29.924Z,80.29
2018-06-28T08:28:29.908Z,77.98
2018-06-28T08:29:35.147Z,78.08
2018-06-28T08:30:29.876Z,78.36
2018-06-28T08:31:29.857Z,77.59
2018-06-28T08:32:29.841Z,77.40
2018-06-28T08:33:29.825Z,77.98
2018-06-28T08:34:29.808Z,78.27
2018-06-28T08:35:29.791Z,77.59
2018-06-28T08:36:29.775Z,77.50
2018-06-28T08:37:29.759Z,77.31
2018-06-28T08:38:29.742Z,77.11
2018-06-28T08:39:29.725Z,77.78
2018-06-28T08:40:29.709Z,77.69
2018-06-28T08:41:29.693Z,77.11
2018-06-28T08:42:29.675Z,77.88
2018-06-28T08:43:29.659Z,78.27
2018-06-28T08:44:29.643Z,78.94
2018-06-28T08:45:29.625Z,78.56
2018-06-28T08:46:29.609Z,78.02
2018-06-28T08:47:29.595Z,77.69
2018-06-28T08:48:29.576Z,78.11
2018-06-28T08:49:29.559Z,76.86
2018-06-28T08:50:29.543Z,76.28
2018-06-28T08:51:29.528Z,76.86
2018-06-28T08:52:29.512Z,76.38
2018-06-28T08:53:29.494Z,76.09
2018-06-28T08:54:29.479Z,77.34
2018-06-28T08:55:29.462Z,77.63
2018-06-28T08:56:29.444Z,77.44
2018-06-28T08:57:30.204Z,76.28
2018-06-28T08:58:29.413Z,77.06
2018-06-28T08:59:29.396Z,76.63
2018-06-28T09:00:29.380Z,76.25
2018-06-28T09:01:29.365Z,77.31
2018-06-28T09:02:29.349Z,77.40
2018-06-28T09:03:29.332Z,76.18
2018-06-28T09:04:29.315Z,76.28
2018-06-28T09:05:29.300Z,76.44
2018-06-28T09:06:29.285Z,77.69
2018-06-28T09:07:29.266Z,77.69
2018-06-28T09:08:29.252Z,77.98
2018-06-28T09:09:29.235Z,77.88
2018-06-28T09:10:29.218Z,77.59
2018-06-28T09:11:29.202Z,77.50
2018-06-28T09:12:29.188Z,77.98
2018-06-28T09:13:29.170Z,78.75
2018-06-28T09:14:29.155Z,78.08
2018-06-28T09:15:29.144Z,77.69
2018-06-28T09:16:29.122Z,77.78
2018-06-28T09:17:29.111Z,77.59
2018-06-28T09:18:29.092Z,77.40
2018-06-28T09:19:29.072Z,77.78
2018-06-28T09:20:29.056Z,76.18
2018-06-28T09:21:29.043Z,76.67
2018-06-28T09:22:29.082Z,75.61
2018-06-28T09:23:32.011Z,76.57
2018-06-28T09:24:28.993Z,76.25
2018-06-28T09:25:28.976Z,77.78
2018-06-28T09:26:28.960Z,77.40
2018-06-28T09:27:28.944Z,77.75
2018-06-28T09:28:28.929Z,77.56
2018-06-28T09:29:28.914Z,78.23
2018-06-28T09:30:28.898Z,78.90
2018-06-28T09:31:28.879Z,79.19
2018-06-28T09:32:28.863Z,79.13
2018-06-28T09:33:28.846Z,78.94
2018-06-28T09:34:28.830Z,78.17
2018-06-28T09:35:28.815Z,77.63
2018-06-28T09:36:28.797Z,77.53
2018-06-28T09:37:28.782Z,77.48
2018-06-28T09:38:28.767Z,76.51
2018-06-28T09:39:28.750Z,76.23
2018-06-28T09:40:28.735Z,75.65
2018-06-28T09:41:28.716Z,75.74
2018-06-28T09:42:28.701Z,75.45
2018-06-28T09:43:28.684Z,76.13
2018-06-28T09:44:28.668Z,75.01
2018-06-28T09:45:28.652Z,74.40
2018-06-28T09:46:28.636Z,74.30
2018-06-28T09:47:28.620Z,74.58
2018-06-28T09:48:28.605Z,74.49
2018-06-28T09:49:28.590Z,75.74
2018-06-28T09:50:30.076Z,75.74
2018-06-28T09:51:28.563Z,75.61
2018-06-28T09:52:28.541Z,75.71
2018-06-28T09:53:28.526Z,75.61
2018-06-28T09:54:28.509Z,76.28
2018-06-28T09:55:28.493Z,76.38
2018-06-28T09:56:34.483Z,76.48
2018-06-28T09:57:28.461Z,77.48
2018-06-28T09:58:28.446Z,77.48
2018-06-28T09:59:28.430Z,76.80
2018-06-28T10:00:28.515Z,76.17
2018-06-28T10:01:28.401Z,74.82
2018-06-28T10:02:34.388Z,75.20
2018-06-28T10:03:28.365Z,76.17
2018-06-28T10:04:28.351Z,74.82
2018-06-28T10:05:28.335Z,74.72
2018-06-28T10:06:28.319Z,74.43
2018-06-28T10:07:28.303Z,74.14
2018-06-28T10:08:29.038Z,73.85
2018-06-28T10:09:28.275Z,74.30
2018-06-28T10:10:28.256Z,74.91
2018-06-28T10:11:28.240Z,75.78
2018-06-28T10:12:28.225Z,74.33
2018-06-28T10:13:28.209Z,74.62
2018-06-28T10:14:28.197Z,74.91
2018-06-28T10:15:28.178Z,75.01
2018-06-28T10:16:28.162Z,75.30
2018-06-28T10:17:28.148Z,76.36
2018-06-28T10:18:28.133Z,74.82
2018-06-28T10:19:28.117Z,75.14
2018-06-28T10:20:28.102Z,75.01
2018-06-28T10:21:28.088Z,76.26
2018-06-28T10:22:28.069Z,75.92
2018-06-28T10:23:28.054Z,76.10
2018-06-28T10:24:28.039Z,74.37
2018-06-28T10:25:28.024Z,73.85
2018-06-28T10:26:28.009Z,74.33
2018-06-28T10:27:27.994Z,73.85
2018-06-28T10:28:27.977Z,74.72
2018-06-28T10:29:27.964Z,74.91
2018-06-28T10:30:27.949Z,75.01
2018-06-28T10:31:27.988Z,74.91
2018-06-28T10:32:27.923Z,74.37
2018-06-28T10:33:27.902Z,75.34
2018-06-28T10:34:27.887Z,74.57
2018-06-28T10:35:27.870Z,74.41
2018-06-28T10:36:27.856Z,74.21
2018-06-28T10:37:27.841Z,75.18
2018-06-28T10:38:27.824Z,75.27
2018-06-28T10:39:27.810Z,74.54
2018-06-28T10:40:27.795Z,74.41
2018-06-28T10:41:27.781Z,73.35
2018-06-28T10:42:27.765Z,74.12
2018-06-28T10:43:27.750Z,75.76
2018-06-28T10:44:27.737Z,74.73
2018-06-28T10:45:27.779Z,73.58
2018-06-28T10:46:27.708Z,73.00
2018-06-28T10:47:27.695Z,74.89
2018-06-28T10:48:27.677Z,75.18
2018-06-28T10:49:27.661Z,76.15
2018-06-28T10:50:27.678Z,75.95
2018-06-28T10:51:27.632Z,74.18
2018-06-28T10:52:27.619Z,75.47
2018-06-28T10:53:27.604Z,74.41
2018-06-28T10:54:27.589Z,72.38
2018-06-28T10:55:27.579Z,73.15
2018-06-28T10:56:27.615Z,73.89
2018-06-28T10:57:27.545Z,74.37
2018-06-28T10:58:27.531Z,73.73
2018-06-28T10:59:27.557Z,75.09
2018-06-28T11:00:27.503Z,74.02
2018-06-28T11:01:27.491Z,74.64
2018-06-28T11:02:27.475Z,73.54
2018-06-28T11:03:27.458Z,75.27
2018-06-28T11:04:27.445Z,75.09
2018-06-28T11:05:27.431Z,74.79
2018-06-28T11:06:27.417Z,74.99
2018-06-28T11:07:27.464Z,74.89
2018-06-28T11:08:27.443Z,75.18
2018-06-28T11:09:27.375Z,74.41
2018-06-28T11:10:27.360Z,73.54
2018-06-28T11:11:27.344Z,72.86
2018-06-28T11:12:27.329Z,73.79
2018-06-28T11:13:27.318Z,74.95
2018-06-28T11:14:27.300Z,74.41
2018-06-28T11:15:27.286Z,74.12
2018-06-28T11:16:27.272Z,74.02
2018-06-28T11:17:28.011Z,73.73
2018-06-28T11:18:27.247Z,74.12
2018-06-28T11:19:27.228Z,72.67
2018-06-28T11:20:27.212Z,72.58
2018-06-28T11:21:27.197Z,74.93
2018-06-28T11:22:27.183Z,73.96
2018-06-28T11:23:27.168Z,72.61
2018-06-28T11:24:27.154Z,72.22
2018-06-28T11:25:27.139Z,73.00
2018-06-28T11:26:27.125Z,72.52
2018-06-28T11:27:27.110Z,72.16
2018-06-28T11:28:28.597Z,71.20
2018-06-28T11:29:27.083Z,71.16
2018-06-28T11:30:27.068Z,71.64
2018-06-28T11:31:27.053Z,72.55
2018-06-28T11:32:27.039Z,71.68
2018-06-28T11:33:27.024Z,71.20
2018-06-28T11:34:29.263Z,71.74
2018-06-28T11:35:26.994Z,74.44
2018-06-28T11:36:26.981Z,73.71
2018-06-28T11:37:26.969Z,71.68
2018-06-28T11:38:26.953Z,71.48
2018-06-28T11:39:26.937Z,71.23
2018-06-28T11:40:27.679Z,71.30
2018-06-28T11:41:26.910Z,71.20
2018-06-28T11:42:26.897Z,71.84
2018-06-28T11:43:26.881Z,72.03
2018-06-28T11:44:26.871Z,72.74
2018-06-28T11:45:26.854Z,72.74
2018-06-28T11:46:26.841Z,71.39
2018-06-28T11:47:26.827Z,72.97
2018-06-28T11:48:26.813Z,73.07
2018-06-28T11:49:26.800Z,71.62
2018-06-28T11:50:26.786Z,71.04
2018-06-28T11:51:26.772Z,71.66
2018-06-28T11:52:26.758Z,70.46
2018-06-28T11:53:26.745Z,70.17
2018-06-28T11:54:26.732Z,70.42
2018-06-28T11:55:26.720Z,71.39
2018-06-28T11:56:26.705Z,72.16
2018-06-28T11:57:26.692Z,71.20
2018-06-28T11:58:26.681Z,71.45
2018-06-28T11:59:26.667Z,71.74
2018-06-28T12:00:26.654Z,72.09
2018-06-28T12:01:26.640Z,72.86
2018-06-28T12:02:26.629Z,73.96
2018-06-28T12:03:26.614Z,73.77
2018-06-28T12:04:26.607Z,72.42
2018-06-28T12:05:26.602Z,72.80
2018-06-28T12:06:29.579Z,72.80
2018-06-28T12:07:26.563Z,73.48
2018-06-28T12:08:26.550Z,73.00
2018-06-28T12:09:26.537Z,74.35
2018-06-28T12:10:26.526Z,73.73
2018-06-28T12:11:26.512Z,74.51
2018-06-28T12:12:26.499Z,74.99
2018-06-28T12:13:26.487Z,75.09
2018-06-28T12:14:26.477Z,74.41
2018-06-28T12:15:26.502Z,74.99
2018-06-28T12:16:26.451Z,75.02
2018-06-28T12:17:26.436Z,74.44
2018-06-28T12:18:26.423Z,74.25
2018-06-28T12:19:26.411Z,74.19
2018-06-28T12:20:26.399Z,73.07
2018-06-28T12:21:26.386Z,72.88
2018-06-28T12:22:26.400Z,72.97
2018-06-28T12:23:26.363Z,72.49
2018-06-28T12:24:26.350Z,74.16
2018-06-28T12:25:26.337Z,75.12
2018-06-28T12:26:26.326Z,76.34
2018-06-28T12:27:26.311Z,76.63
2018-06-28T12:28:26.301Z,77.01
2018-06-28T12:29:26.287Z,76.40
2018-06-28T12:30:26.275Z,76.98
2018-06-28T12:31:26.261Z,78.13
2018-06-28T12:32:26.248Z,77.84
2018-06-28T12:33:26.235Z,78.23
2018-06-28T12:34:26.225Z,79.29
2018-06-28T12:35:26.209Z,79.00
2018-06-28T12:36:26.198Z,78.71
2018-06-28T12:37:26.185Z,78.86
2018-06-28T12:38:26.171Z,79.44
2018-06-28T12:39:26.158Z,78.23
2018-06-28T12:40:26.146Z,79.25
2018-06-28T12:41:26.133Z,79.06
2018-06-28T12:42:26.120Z,78.73
2018-06-28T12:43:29.109Z,79.98
2018-06-28T12:44:26.097Z,81.04
2018-06-28T12:45:26.080Z,81.81
2018-06-28T12:46:26.070Z,82.10
2018-06-28T12:47:26.053Z,82.20
2018-06-28T12:48:26.039Z,82.49
2018-06-28T12:49:26.029Z,82.87
2018-06-28T12:50:26.014Z,82.01
2018-06-28T12:51:25.999Z,83.16
2018-06-28T12:52:25.988Z,83.16